createdAt,value
2019-04-10T00:00:35.590Z,84.90
2019-04-10T00:04:37.488Z,85.80
2019-04-10T00:08:39.406Z,85.90
2019-04-10T00:12:42.287Z,85.90
2019-04-10T00:16:44.588Z,86.20
2019-04-10T00:20:46.969Z,85.90
2019-04-10T00:24:48.975Z,85.80
2019-04-10T00:28:51.918Z,86.20
2019-04-10T00:32:54.422Z,85.80
2019-04-10T00:36:57.485Z,85.40
2019-04-10T00:40:59.657Z,85.80
2019-04-10T00:45:03.906Z,86.20
2019-04-10T00:49:05.807Z,86.20
2019-04-10T00:53:08.540Z,86.20
2019-04-10T00:57:11.378Z,86.20
2019-04-10T01:01:13.878Z,87.60
2019-04-10T01:05:17.296Z,87.00
2019-04-10T01:09:20.176Z,87.30
2019-04-10T01:13:22.991Z,87.40
2019-04-10T01:17:24.887Z,87.50
2019-04-10T01:21:26.798Z,87.00
2019-04-10T01:25:28.699Z,87.10
2019-04-10T01:29:30.603Z,86.60
2019-04-10T01:33:32.561Z,87.30
2019-04-10T01:37:46.646Z,87.70
2019-04-10T01:41:38.041Z,87.50
2019-04-10T01:45:39.957Z,86.70
2019-04-10T01:49:41.998Z,86.70
2019-04-10T01:53:44.227Z,88.10
2019-04-10T01:57:46.400Z,88.00
2019-04-10T02:01:52.658Z,88.00
2019-04-10T02:05:54.781Z,88.10
2019-04-10T02:09:56.680Z,87.30
2019-04-10T02:13:58.592Z,86.70
2019-04-10T02:18:01.301Z,86.90
2019-04-10T02:22:04.334Z,86.80
2019-04-10T02:26:07.357Z,87.60
2019-04-10T02:30:14.673Z,86.70
2019-04-10T02:34:17.228Z,87.00
2019-04-10T02:38:35.729Z,86.50
2019-04-10T02:42:24.679Z,87.40
2019-04-10T02:46:26.941Z,86.70
2019-04-10T02:50:29.476Z,85.90
2019-04-10T02:54:33.402Z,87.00
2019-04-10T02:58:38.533Z,85.90
2019-04-10T03:02:41.573Z,86.20
2019-04-10T03:06:45.212Z,86.70
2019-04-10T03:10:50.580Z,86.60
2019-04-10T03:14:52.285Z,86.20
2019-04-10T03:18:54.917Z,85.60
2019-04-10T03:22:56.957Z,85.20
2019-04-10T03:26:58.892Z,85.40
2019-04-10T03:31:02.944Z,85.00
2019-04-10T03:35:14.472Z,86.00
2019-04-10T03:39:17.393Z,85.00
2019-04-10T03:43:19.537Z,85.10
2019-04-10T03:47:21.422Z,85.60
2019-04-10T03:51:23.318Z,85.10
2019-04-10T03:55:25.245Z,84.80
2019-04-10T03:59:27.145Z,85.60
2019-04-10T04:03:29.066Z,84.90
2019-04-10T04:07:30.976Z,84.80
2019-04-10T04:11:33.526Z,85.10
2019-04-10T04:15:35.872Z,84.40
2019-04-10T04:19:38.706Z,83.60
2019-04-10T04:23:40.686Z,83.50
2019-04-10T04:27:42.680Z,84.20
2019-04-10T04:31:44.573Z,84.10
2019-04-10T04:35:47.395Z,83.90
2019-04-10T04:39:49.379Z,83.70
2019-04-10T04:43:51.286Z,84.00
2019-04-10T04:47:54.026Z,84.10
2019-04-10T04:51:55.986Z,84.40
2019-04-10T04:55:57.900Z,85.20
2019-04-10T04:59:59.813Z,84.40
2019-04-10T05:04:02.462Z,84.30
2019-04-10T05:08:07.373Z,84.30
2019-04-10T05:12:09.641Z,84.10
2019-04-10T05:16:11.542Z,84.70
2019-04-10T05:20:14.762Z,84.50
2019-04-10T05:24:17.776Z,84.50
2019-04-10T05:28:20.421Z,84.90
2019-04-10T05:32:23.359Z,84.50
2019-04-10T05:36:26.585Z,84.50
2019-04-10T05:40:28.633Z,84.60
2019-04-10T05:44:44.372Z,84.40
2019-04-10T05:48:49.010Z,85.20
2019-04-10T05:52:51.800Z,86.20
2019-04-10T05:56:54.682Z,85.10
2019-04-10T06:00:58.862Z,85.40
2019-04-10T06:05:00.904Z,85.40
2019-04-10T06:09:04.763Z,84.00
2019-04-10T06:13:06.852Z,84.40
2019-04-10T06:17:09.971Z,83.20
2019-04-10T06:21:12.581Z,83.70
2019-04-10T06:25:16.014Z,84.00
2019-04-10T06:29:19.209Z,83.50
2019-04-10T06:33:22.233Z,83.10
2019-04-10T06:37:24.259Z,82.80
2019-04-10T06:41:26.429Z,83.50
2019-04-10T06:45:28.465Z,82.70
2019-04-10T06:49:31.117Z,82.80
2019-04-10T06:53:33.237Z,83.40
2019-04-10T06:57:48.146Z,82.50
2019-04-10T07:01:44.329Z,81.90
2019-04-10T07:05:56.385Z,81.40
2019-04-10T07:09:47.443Z,81.20
2019-04-10T07:13:51.519Z,81.40
2019-04-10T07:17:55.456Z,80.80
2019-04-10T07:22:00.339Z,80.00
2019-04-10T07:26:02.090Z,79.80
2019-04-10T07:30:09.734Z,79.60
2019-04-10T07:34:11.906Z,80.20
2019-04-10T07:38:15.911Z,78.70
2019-04-10T07:42:26.657Z,78.60
2019-04-10T07:46:21.825Z,78.80
2019-04-10T07:50:24.760Z,79.40
2019-04-10T07:54:26.811Z,79.70
2019-04-10T07:58:29.212Z,79.60
2019-04-10T08:02:31.751Z,79.80
2019-04-10T08:06:33.748Z,78.40
2019-04-10T08:10:36.798Z,77.20
2019-04-10T08:14:39.717Z,75.60
2019-04-10T08:18:41.842Z,76.90
2019-04-10T08:22:44.792Z,77.50
2019-04-10T08:26:47.248Z,76.00
2019-04-10T08:30:50.391Z,74.40
2019-04-10T08:34:52.663Z,74.20
2019-04-10T08:38:55.010Z,73.10
2019-04-10T08:42:57.811Z,73.90
2019-04-10T08:47:00.195Z,73.50
2019-04-10T08:51:03.111Z,73.10
2019-04-10T08:55:06.507Z,73.70
2019-04-10T08:59:27.825Z,73.50
2019-04-10T09:03:30.917Z,72.00
2019-04-10T09:07:33.870Z,71.60
2019-04-10T09:11:37.599Z,69.90
2019-04-10T09:15:40.282Z,70.10
2019-04-10T09:19:42.354Z,70.60
2019-04-10T09:23:50.272Z,70.00
2019-04-10T09:27:47.874Z,70.30
2019-04-10T09:31:50.308Z,71.00
2019-04-10T09:35:52.966Z,71.00
2019-04-10T09:39:56.473Z,71.60
2019-04-10T09:43:58.634Z,69.80
2019-04-10T09:48:00.576Z,70.00
2019-04-10T09:52:02.743Z,69.20
2019-04-10T09:56:05.309Z,67.70
2019-04-10T10:00:10.497Z,66.90
2019-04-10T10:04:15.350Z,66.70
2019-04-10T10:08:18.335Z,66.10
2019-04-10T10:12:20.381Z,64.50
2019-04-10T10:16:23.854Z,64.30
2019-04-10T10:20:26.161Z,61.90
2019-04-10T10:24:28.873Z,63.00
2019-04-10T10:28:31.183Z,60.00
2019-04-10T10:32:33.129Z,59.00
2019-04-10T10:36:41.309Z,60.00
2019-04-10T10:40:39.433Z,58.80
2019-04-10T10:44:42.459Z,61.00
2019-04-10T10:48:44.426Z,62.70
2019-04-10T10:52:46.336Z,63.30
2019-04-10T10:56:48.803Z,63.10
2019-04-10T11:00:51.726Z,63.50
2019-04-10T11:04:53.942Z,63.50
2019-04-10T11:08:55.849Z,64.10
2019-04-10T11:12:58.483Z,64.00
2019-04-10T11:17:01.375Z,64.90
2019-04-10T11:21:08.001Z,65.70
2019-04-10T11:25:08.080Z,66.40
2019-04-10T11:29:10.157Z,65.00
2019-04-10T11:33:12.452Z,65.30
2019-04-10T11:37:24.119Z,66.20
2019-04-10T11:41:19.249Z,67.10
2019-04-10T11:45:23.031Z,65.60
2019-04-10T11:49:27.728Z,65.60
2019-04-10T11:53:28.861Z,65.70
2019-04-10T11:57:32.471Z,65.60
2019-04-10T12:01:36.363Z,65.50
2019-04-10T12:05:42.026Z,64.70
2019-04-10T12:13:48.273Z,66.70
2019-04-10T12:17:50.195Z,65.50
2019-04-10T12:21:52.112Z,65.00
2019-04-10T12:25:54.040Z,64.00
2019-04-10T12:29:57.019Z,64.70
2019-04-10T12:34:00.346Z,65.40
2019-04-10T12:38:07.016Z,66.10
2019-04-10T12:42:06.477Z,64.80
2019-04-10T12:46:08.628Z,65.30
2019-04-10T12:50:12.064Z,64.00
2019-04-10T12:54:14.242Z,64.40
2019-04-10T12:58:18.943Z,65.60
2019-04-10T13:02:20.592Z,62.60
2019-04-10T13:06:22.505Z,63.30
2019-04-10T13:10:31.688Z,64.70
2019-04-10T13:14:34.789Z,63.30
2019-04-10T13:18:38.538Z,62.60
2019-04-10T13:22:40.530Z,61.80
2019-04-10T13:26:42.885Z,61.80
2019-04-10T13:30:52.418Z,62.40
2019-04-10T13:34:49.310Z,63.00
2019-04-10T13:38:51.315Z,62.70
2019-04-10T13:42:53.723Z,61.60
2019-04-10T13:46:55.655Z,62.60
2019-04-10T13:50:57.621Z,61.60
2019-04-10T13:54:59.597Z,61.00
2019-04-10T13:59:01.586Z,60.10
2019-04-10T14:03:03.944Z,60.20
2019-04-10T14:07:07.468Z,59.40
2019-04-10T14:11:09.432Z,59.10
2019-04-10T14:15:12.169Z,58.00
2019-04-10T14:19:15.092Z,58.40
2019-04-10T14:23:18.661Z,58.40
2019-04-10T14:27:25.129Z,57.60
2019-04-10T14:31:32.168Z,57.60
2019-04-10T14:35:34.183Z,57.10
2019-04-10T14:39:37.591Z,58.00
2019-04-10T14:43:42.677Z,56.60
2019-04-10T14:47:44.484Z,57.10
2019-04-10T14:51:46.430Z,57.60
2019-04-10T14:55:49.296Z,57.80
2019-04-10T14:59:52.435Z,58.00
2019-04-10T15:03:54.983Z,58.00
2019-04-10T15:07:57.505Z,57.00
2019-04-10T15:11:59.437Z,57.90
2019-04-10T15:16:01.597Z,57.70
2019-04-10T15:20:04.914Z,57.70
2019-04-10T15:24:07.052Z,56.60
2019-04-10T15:28:08.965Z,56.90
2019-04-10T15:32:12.753Z,57.00
2019-04-10T15:36:17.891Z,57.40
2019-04-10T15:40:25.572Z,56.00
2019-04-10T15:44:25.902Z,55.90
2019-04-10T15:48:29.377Z,56.60
2019-04-10T15:52:31.421Z,57.20
2019-04-10T15:56:33.978Z,57.30
2019-04-10T16:00:37.059Z,55.80
2019-04-10T16:04:40.263Z,56.00
2019-04-10T16:08:42.701Z,56.40
2019-04-10T16:12:45.738Z,57.20
2019-04-10T16:16:48.667Z,57.30
2019-04-10T16:20:52.912Z,58.30
2019-04-10T16:24:55.663Z,59.30
2019-04-10T16:28:57.798Z,60.30
2019-04-10T16:33:00.830Z,61.30
2019-04-10T16:37:02.977Z,61.80
2019-04-10T16:41:04.957Z,62.20
2019-04-10T16:45:08.351Z,62.20
2019-04-10T16:49:10.646Z,62.70
2019-04-10T16:53:13.775Z,63.50
2019-04-10T16:57:18.505Z,64.20
2019-04-10T17:01:20.554Z,64.60
2019-04-10T17:05:22.702Z,65.70
2019-04-10T17:09:26.927Z,66.00
2019-04-10T17:13:28.880Z,66.50
2019-04-10T17:17:30.807Z,67.80
2019-04-10T17:21:32.736Z,68.70
2019-04-10T17:25:35.958Z,68.70
2019-04-10T17:29:38.933Z,67.20
2019-04-10T17:33:41.883Z,63.00
2019-04-10T17:37:43.907Z,60.50
2019-04-10T17:41:45.944Z,59.30
2019-04-10T17:45:48.928Z,59.00
2019-04-10T17:49:51.827Z,58.60
2019-04-10T17:53:53.863Z,58.90
2019-04-10T17:57:57.441Z,58.70
2019-04-10T18:02:01.697Z,58.80
2019-04-10T18:06:03.914Z,59.50
2019-04-10T18:10:08.541Z,58.60
2019-04-10T18:14:11.162Z,58.70
2019-04-10T18:18:13.692Z,58.80
2019-04-10T18:22:15.679Z,59.40
2019-04-10T18:26:20.371Z,59.20
2019-04-10T18:30:21.713Z,58.10
2019-04-10T18:34:24.818Z,58.30
2019-04-10T18:38:27.800Z,58.10
2019-04-10T18:42:30.824Z,59.20
2019-04-10T18:46:32.929Z,58.50
2019-04-10T18:50:34.870Z,58.70
2019-04-10T18:54:45.481Z,58.90
2019-04-10T18:58:56.259Z,59.10
2019-04-10T19:02:59.194Z,59.70
2019-04-10T19:11:21.220Z,59.30
2019-04-10T19:15:18.121Z,60.20
2019-04-10T19:19:20.953Z,61.00
2019-04-10T19:23:23.896Z,60.40
2019-04-10T19:27:26.964Z,60.80
2019-04-10T19:31:29.849Z,60.30
2019-04-10T19:35:31.899Z,60.20
2019-04-10T19:39:34.176Z,60.40
2019-04-10T19:43:36.435Z,60.70
2019-04-10T19:47:38.858Z,61.80
2019-04-10T19:51:40.901Z,61.10
2019-04-10T19:55:42.794Z,62.40
2019-04-10T19:59:44.706Z,62.80
2019-04-10T20:03:46.625Z,62.60
2019-04-10T20:07:49.217Z,62.90
2019-04-10T20:11:54.444Z,63.20
2019-04-10T20:15:55.896Z,62.70
2019-04-10T20:19:58.800Z,63.10
2019-04-10T20:24:02.688Z,63.50
2019-04-10T20:28:04.872Z,64.10
2019-04-10T20:32:07.865Z,64.80
2019-04-10T20:36:10.950Z,65.10
2019-04-10T20:40:13.904Z,65.10
2019-04-10T20:44:16.585Z,65.50
2019-04-10T20:48:18.619Z,65.80
2019-04-10T20:52:20.545Z,65.90
2019-04-10T20:56:22.448Z,65.80
2019-04-10T21:00:34.806Z,65.10
2019-04-10T21:04:37.817Z,66.20
2019-04-10T21:08:40.419Z,66.60
2019-04-10T21:12:44.138Z,66.40
2019-04-10T21:16:46.156Z,66.60
2019-04-10T21:20:49.138Z,66.70
2019-04-10T21:24:52.089Z,66.90
2019-04-10T21:28:54.162Z,67.60
2019-04-10T21:33:00.630Z,68.00
2019-04-10T21:37:03.714Z,67.80
2019-04-10T21:41:08.170Z,67.90
2019-04-10T21:45:09.626Z,68.20
2019-04-10T21:49:11.603Z,68.60
2019-04-10T21:53:14.213Z,67.80
2019-04-10T21:57:16.144Z,68.50
2019-04-10T22:01:18.973Z,69.40
2019-04-10T22:05:22.470Z,69.20
2019-04-10T22:09:45.228Z,70.20
2019-04-10T22:13:47.246Z,70.30
2019-04-10T22:17:50.568Z,69.60
2019-04-10T22:21:53.627Z,70.30
2019-04-10T22:25:56.336Z,70.00
2019-04-10T22:29:58.473Z,70.80
2019-04-10T22:34:00.827Z,70.40
2019-04-10T22:38:02.781Z,70.30
2019-04-10T22:42:06.087Z,70.20
2019-04-10T22:46:08.777Z,70.00
2019-04-10T22:50:10.746Z,70.10
2019-04-10T22:54:13.076Z,70.50
2019-04-10T22:58:15.051Z,71.20
2019-04-10T23:02:17.160Z,71.70
2019-04-10T23:06:19.145Z,70.80
2019-04-10T23:10:21.251Z,72.50
2019-04-10T23:14:23.191Z,71.90
2019-04-10T23:18:25.574Z,71.00
2019-04-10T23:22:27.474Z,71.00
2019-04-10T23:26:29.358Z,71.80
2019-04-10T23:30:31.283Z,72.00
2019-04-10T23:34:33.195Z,72.00
2019-04-10T23:38:35.444Z,71.20
2019-04-10T23:42:37.940Z,71.80
2019-04-10T23:46:39.883Z,71.50
2019-04-10T23:50:42.779Z,71.50
2019-04-10T23:54:45.754Z,71.50
2019-04-10T23:58:49.089Z,72.80
